createdAt,value
2022-10-28T00:02:19.942Z,37.47
2022-10-28T00:07:13.497Z,39.95
2022-10-28T00:12:07.452Z,37.83
2022-10-28T00:17:01.453Z,40.05
2022-10-28T00:21:54.431Z,41.35
2022-10-28T00:26:48.699Z,39.70
2022-10-28T00:31:42.410Z,40.13
2022-10-28T00:36:42.263Z,40.70
2022-10-28T00:41:38.091Z,40.80
2022-10-28T00:46:57.149Z,38.90
2022-10-28T00:52:01.464Z,39.70
2022-10-28T00:56:58.302Z,37.65
2022-10-28T01:01:52.388Z,39.20
2022-10-28T01:06:46.451Z,40.83
2022-10-28T01:11:59.965Z,40.45
2022-10-28T01:17:09.780Z,42.63
2022-10-28T01:22:18.651Z,39.60
2022-10-28T01:27:22.842Z,40.70
2022-10-28T01:32:37.815Z,39.70
2022-10-28T01:37:37.844Z,41.00
2022-10-28T01:42:59.637Z,39.90
2022-10-28T01:48:03.904Z,39.90
2022-10-28T01:53:00.221Z,39.72
2022-10-28T01:57:54.961Z,40.80
2022-10-28T02:02:49.881Z,41.25
2022-10-28T02:07:43.640Z,40.40
2022-10-28T02:12:38.288Z,40.25
2022-10-28T02:17:38.355Z,40.50
2022-10-28T02:22:38.968Z,38.97
2022-10-28T02:27:34.005Z,40.10
2022-10-28T02:32:47.783Z,40.35
2022-10-28T02:38:01.612Z,40.97
2022-10-28T02:43:42.101Z,41.10
2022-10-28T02:48:42.101Z,41.20
2022-10-28T02:53:52.567Z,38.78
2022-10-28T02:58:45.983Z,39.10
2022-10-28T03:04:18.565Z,37.60
2022-10-28T03:09:52.165Z,38.67
2022-10-28T03:15:25.175Z,35.63
2022-10-28T03:20:18.707Z,35.97
2022-10-28T03:25:14.182Z,35.97
2022-10-28T03:30:10.487Z,36.22
2022-10-28T03:35:04.949Z,35.88
2022-10-28T03:40:01.591Z,34.80
2022-10-28T03:44:55.573Z,37.00
2022-10-28T03:49:49.492Z,34.65
2022-10-28T03:54:43.317Z,34.92
2022-10-28T03:59:36.201Z,34.30
2022-10-28T04:04:30.782Z,34.77
2022-10-28T04:09:24.741Z,33.83
2022-10-28T04:14:21.869Z,35.45
2022-10-28T04:19:14.869Z,35.47
2022-10-28T04:24:08.682Z,37.17
2022-10-28T04:29:02.816Z,36.60
2022-10-28T04:33:57.146Z,35.78
2022-10-28T04:38:52.579Z,38.50
2022-10-28T04:43:46.422Z,37.63
2022-10-28T04:48:40.216Z,37.88
2022-10-28T04:53:33.590Z,40.22
2022-10-28T04:58:28.708Z,38.65
2022-10-28T05:03:22.168Z,37.95
2022-10-28T05:08:15.771Z,37.38
2022-10-28T05:13:09.057Z,34.92
2022-10-28T05:18:03.345Z,35.50
2022-10-28T05:22:57.346Z,34.88
2022-10-28T05:27:51.706Z,34.63
2022-10-28T05:32:45.773Z,34.08
2022-10-28T05:37:40.854Z,33.92
2022-10-28T05:42:34.024Z,33.95
2022-10-28T05:47:27.676Z,31.65
2022-10-28T05:57:14.932Z,34.83
2022-10-28T06:02:15.956Z,33.22
2022-10-28T06:07:09.727Z,36.00
2022-10-28T06:12:02.241Z,34.25
2022-10-28T06:16:55.893Z,34.15
2022-10-28T06:21:50.180Z,31.95
2022-10-28T06:26:44.668Z,32.75
2022-10-28T06:31:44.253Z,31.15
2022-10-28T06:36:38.198Z,31.95
2022-10-28T06:41:32.739Z,31.35
2022-10-28T06:46:26.644Z,33.08
2022-10-28T06:51:22.025Z,31.48
2022-10-28T06:56:16.160Z,32.90
2022-10-28T07:06:01.854Z,33.50
2022-10-28T07:10:56.736Z,34.53
2022-10-28T07:15:57.194Z,36.45
2022-10-28T07:20:50.721Z,34.70
2022-10-28T07:25:49.145Z,34.90
2022-10-28T07:30:43.680Z,34.78
2022-10-28T07:35:36.882Z,33.65
2022-10-28T07:40:29.630Z,33.47
2022-10-28T07:50:16.647Z,32.58
2022-10-28T07:55:10.220Z,31.77
2022-10-28T08:00:06.005Z,34.38
2022-10-28T08:05:08.783Z,33.10
2022-10-28T08:10:06.559Z,33.58
2022-10-28T08:15:00.714Z,32.50
2022-10-28T08:19:57.164Z,36.70
2022-10-28T08:24:51.761Z,36.55
2022-10-28T08:29:46.177Z,39.63
2022-10-28T08:34:43.953Z,43.53
2022-10-28T08:39:37.858Z,43.15
2022-10-28T08:44:57.855Z,41.63
2022-10-28T08:49:58.020Z,37.67
2022-10-28T08:55:07.270Z,35.70
2022-10-28T09:00:08.041Z,33.45
2022-10-28T09:05:22.514Z,30.70
2022-10-28T09:10:17.069Z,32.00
2022-10-28T09:15:36.174Z,31.58
2022-10-28T09:20:29.668Z,31.52
2022-10-28T09:25:26.662Z,28.73
2022-10-28T09:30:42.817Z,32.28
2022-10-28T09:35:43.692Z,31.55
2022-10-28T09:40:39.363Z,38.38
2022-10-28T09:45:33.758Z,37.83
2022-10-28T09:50:31.645Z,37.92
2022-10-28T09:55:29.566Z,40.20
2022-10-28T10:00:23.526Z,38.08
2022-10-28T10:05:19.906Z,37.40
2022-10-28T10:10:48.813Z,39.85
2022-10-28T10:15:54.851Z,40.58
2022-10-28T10:21:07.926Z,36.63
2022-10-28T10:26:06.871Z,40.28
2022-10-28T10:31:24.113Z,39.75
2022-10-28T10:36:18.206Z,40.03
2022-10-28T10:41:11.458Z,39.20
2022-10-28T10:46:08.451Z,39.35
2022-10-28T10:51:13.291Z,39.30
2022-10-28T10:56:30.035Z,37.50
2022-10-28T11:01:26.185Z,35.50
2022-10-28T11:06:28.309Z,38.53
2022-10-28T11:11:23.008Z,38.73
2022-10-28T11:16:29.665Z,39.50
2022-10-28T11:21:48.021Z,40.13
2022-10-28T11:27:03.147Z,32.88
2022-10-28T11:32:21.994Z,39.75
2022-10-28T11:37:53.250Z,39.17
2022-10-28T11:42:52.723Z,36.05
2022-10-28T11:47:46.563Z,35.15
2022-10-28T11:53:01.522Z,32.25
2022-10-28T11:58:30.245Z,35.67
2022-10-28T12:03:45.511Z,32.15
2022-10-28T12:08:56.610Z,32.95
2022-10-28T12:14:31.347Z,30.05
2022-10-28T12:19:34.757Z,33.95
2022-10-28T12:24:32.363Z,34.13
2022-10-28T12:29:37.495Z,31.95
2022-10-28T12:39:56.894Z,35.85
2022-10-28T12:44:53.676Z,34.72
2022-10-28T12:50:14.093Z,33.95
2022-10-28T13:00:19.237Z,30.52
2022-10-28T13:05:21.419Z,29.50
2022-10-28T13:10:34.368Z,27.80
2022-10-28T13:16:08.687Z,30.25
2022-10-28T13:21:35.917Z,29.52
2022-10-28T13:26:35.413Z,30.75
2022-10-28T13:31:58.017Z,29.27
2022-10-28T13:37:31.715Z,29.52
2022-10-28T13:42:29.283Z,31.10
2022-10-28T13:47:30.668Z,28.40
2022-10-28T13:52:23.731Z,30.25
2022-10-28T13:57:29.986Z,30.02
2022-10-28T14:02:35.209Z,30.70
2022-10-28T14:07:53.673Z,30.23
2022-10-28T14:12:53.809Z,34.10
2022-10-28T14:23:36.962Z,33.15
2022-10-28T14:28:29.746Z,32.22
2022-10-28T14:33:24.424Z,32.40
2022-10-28T14:38:28.778Z,31.65
2022-10-28T14:43:29.501Z,31.05
2022-10-28T14:48:44.977Z,32.47
2022-10-28T14:53:38.815Z,29.27
2022-10-28T14:58:51.590Z,28.35
2022-10-28T15:04:09.613Z,29.95
2022-10-28T15:09:09.023Z,28.23
2022-10-28T15:14:24.776Z,34.40
2022-10-28T15:19:23.838Z,34.65
2022-10-28T15:24:18.304Z,35.38
2022-10-28T15:29:12.874Z,36.28
2022-10-28T15:34:19.833Z,36.72
2022-10-28T15:39:17.422Z,37.47
2022-10-28T15:44:44.880Z,35.80
2022-10-28T15:49:41.775Z,36.05
2022-10-28T15:54:36.545Z,37.42
2022-10-28T15:59:30.319Z,37.08
2022-10-28T16:04:24.032Z,40.28
2022-10-28T16:09:26.946Z,40.47
2022-10-28T16:14:45.345Z,42.17
2022-10-28T16:19:41.402Z,39.58
2022-10-28T16:24:39.570Z,40.00
2022-10-28T16:29:33.599Z,41.92
2022-10-28T16:34:27.712Z,42.30
2022-10-28T16:39:22.078Z,41.90
2022-10-28T16:44:18.606Z,41.85
2022-10-28T16:49:12.366Z,40.63
2022-10-28T16:54:06.158Z,39.67
2022-10-28T16:59:00.455Z,38.58
2022-10-28T17:03:54.431Z,38.67
2022-10-28T17:09:04.149Z,36.20
2022-10-28T17:13:58.272Z,38.88
2022-10-28T17:18:57.724Z,37.85
2022-10-28T17:24:00.342Z,40.00
2022-10-28T17:29:04.605Z,39.47
2022-10-28T17:34:09.129Z,38.75
2022-10-28T17:39:09.243Z,37.17
2022-10-28T17:44:13.348Z,36.33
2022-10-28T17:49:17.055Z,37.90
2022-10-28T17:54:20.336Z,37.45
2022-10-28T17:59:25.100Z,39.42
2022-10-28T18:04:28.218Z,39.00
2022-10-28T18:09:30.633Z,40.78
2022-10-28T18:14:30.889Z,42.78
2022-10-28T18:19:35.842Z,40.95
2022-10-28T18:24:35.676Z,41.33
2022-10-28T18:29:39.229Z,40.30
2022-10-28T18:34:34.343Z,39.30
2022-10-28T18:39:27.902Z,40.42
2022-10-28T18:44:24.676Z,39.22
2022-10-28T18:49:19.331Z,39.95
2022-10-28T18:54:13.654Z,40.10
2022-10-28T18:59:09.254Z,41.90
2022-10-28T19:04:05.537Z,40.50
2022-10-28T19:09:00.066Z,40.20
2022-10-28T19:13:54.928Z,40.55
2022-10-28T19:18:50.451Z,40.22
2022-10-28T19:23:45.250Z,42.25
2022-10-28T19:28:40.516Z,39.58
2022-10-28T19:33:33.902Z,38.10
2022-10-28T19:38:31.265Z,37.60
2022-10-28T19:43:24.617Z,38.40
2022-10-28T19:48:20.041Z,38.38
2022-10-28T19:53:14.911Z,39.20
2022-10-28T19:58:09.717Z,40.33
2022-10-28T20:03:02.736Z,40.45
2022-10-28T20:07:57.780Z,39.55
2022-10-28T20:12:52.185Z,39.90
2022-10-28T20:17:46.324Z,38.17
2022-10-28T20:27:35.387Z,39.85
2022-10-28T20:32:29.405Z,41.65
2022-10-28T20:37:23.357Z,40.55
2022-10-28T20:42:17.682Z,41.70
2022-10-28T20:47:11.972Z,39.70
2022-10-28T20:52:06.877Z,39.47
2022-10-28T20:57:00.608Z,40.90
2022-10-28T21:01:55.121Z,40.70
2022-10-28T21:06:49.347Z,40.00
2022-10-28T21:11:45.812Z,40.65
2022-10-28T21:16:39.615Z,41.08
2022-10-28T21:21:34.085Z,41.33
2022-10-28T21:26:28.460Z,41.53
2022-10-28T21:31:21.908Z,41.95
2022-10-28T21:36:18.243Z,43.50
2022-10-28T21:41:19.269Z,41.90
2022-10-28T21:46:13.963Z,43.05
2022-10-28T21:51:14.369Z,42.70
2022-10-28T21:56:35.714Z,44.55
2022-10-28T22:01:29.683Z,45.67
2022-10-28T22:06:23.099Z,40.17
2022-10-28T22:11:20.068Z,38.45
2022-10-28T22:16:17.831Z,41.03
2022-10-28T22:21:12.556Z,40.10
2022-10-28T22:26:09.033Z,39.35
2022-10-28T22:31:03.974Z,40.35
2022-10-28T22:36:18.179Z,41.45
2022-10-28T22:41:25.890Z,39.80
2022-10-28T22:46:19.487Z,41.35
2022-10-28T22:51:13.062Z,39.97
2022-10-28T22:56:07.881Z,38.33
2022-10-28T23:01:16.952Z,33.33
2022-10-28T23:06:11.971Z,30.67
2022-10-28T23:11:05.748Z,30.00
2022-10-28T23:16:09.859Z,29.02
2022-10-28T23:21:13.951Z,26.83
2022-10-28T23:26:09.592Z,28.77
2022-10-28T23:31:04.101Z,30.70
2022-10-28T23:35:57.984Z,29.77
2022-10-28T23:41:02.654Z,28.30
2022-10-28T23:45:57.513Z,27.77
2022-10-28T23:50:51.976Z,25.58
2022-10-28T23:55:46.758Z,25.00
